Time;durP1;ratioP1;P1;durP2;ratioP2;P2;SDS_P1;SDS_P2;PMS_P1;PMS_P2;Temp;Humidity;BMP_temperature;BMP_pressure;BME280_temperature;BME280_humidity;BME280_pressure;Samples;Min_cycle;Max_cycle;Signal;HPM_P1;HPM_P2
2021/05/01 00:01:39;;;;;;;30.07;25.57;;;10.00;1.00;;;;;;5021302;28;20661;-66
2021/05/01 00:04:05;;;;;;;27.20;24.17;;;10.00;1.00;;;;;;5023930;28;20617;-65
2021/05/01 00:06:30;;;;;;;28.83;25.80;;;10.00;1.00;;;;;;5030465;28;20182;-66
2021/05/01 00:08:56;;;;;;;28.60;25.50;;;10.00;1.00;;;;;;5033922;28;20393;-66
2021/05/01 00:11:23;;;;;;;28.47;24.93;;;10.00;1.00;;;;;;5029582;28;20181;-66
2021/05/01 00:13:50;;;;;;;29.93;26.30;;;10.00;1.00;;;;;;5021962;28;20243;-65
2021/05/01 00:16:15;;;;;;;29.00;26.00;;;10.00;1.00;;;;;;5027566;28;20999;-66
2021/05/01 00:18:41;;;;;;;28.83;25.77;;;10.00;1.00;;;;;;5023328;28;20456;-66
2021/05/01 00:21:07;;;;;;;28.43;25.43;;;10.00;1.00;;;;;;5023943;28;20199;-65
2021/05/01 00:23:32;;;;;;;27.40;24.50;;;10.00;1.00;;;;;;5024623;28;20221;-66
2021/05/01 00:25:59;;;;;;;26.43;23.63;;;10.10;1.00;;;;;;5041871;28;20194;-65
2021/05/01 00:28:25;;;;;;;28.47;25.47;;;10.00;1.00;;;;;;5024741;28;20170;-66
2021/05/01 00:30:51;;;;;;;29.03;26.00;;;10.00;1.00;;;;;;5024815;28;20481;-66
2021/05/01 00:33:17;;;;;;;26.50;23.93;;;10.10;1.00;;;;;;5024169;28;20453;-66
2021/05/01 00:35:43;;;;;;;27.27;24.43;;;10.00;1.00;;;;;;5024478;28;20241;-66
2021/05/01 00:38:09;;;;;;;30.57;26.50;;;10.00;1.00;;;;;;5024666;28;20243;-66
2021/05/01 00:40:34;;;;;;;29.30;26.30;;;10.00;1.00;;;;;;5023464;28;20837;-66
2021/05/01 00:43:00;;;;;;;29.10;26.00;;;10.00;1.00;;;;;;5024722;28;20774;-66
2021/05/01 00:45:25;;;;;;;30.07;26.87;;;10.00;1.00;;;;;;5028149;28;20284;-66
2021/05/01 00:47:51;;;;;;;29.47;26.33;;;9.90;1.00;;;;;;5039341;28;20595;-65
2021/05/01 00:50:17;;;;;;;28.77;25.73;;;9.90;1.00;;;;;;5037239;28;20227;-65
2021/05/01 00:52:43;;;;;;;29.60;25.77;;;9.90;1.00;;;;;;5030566;28;20516;-65
2021/05/01 00:55:09;;;;;;;31.60;27.57;;;9.90;1.00;;;;;;5035000;28;20191;-65
2021/05/01 00:57:37;;;;;;;29.63;26.57;;;9.90;1.00;;;;;;5044533;28;20457;-65
2021/05/01 01:00:06;;;;;;;29.00;26.00;;;9.80;1.00;;;;;;5035863;28;20448;-65
2021/05/01 01:02:32;;;;;;;29.67;26.47;;;9.80;1.00;;;;;;5021976;28;20546;-67
2021/05/01 01:04:57;;;;;;;29.40;26.33;;;9.80;1.00;;;;;;5030713;28;21216;-65
2021/05/01 01:07:23;;;;;;;30.97;27.67;;;9.80;1.00;;;;;;5032056;28;20193;-66
2021/05/01 01:09:51;;;;;;;29.03;25.30;;;9.70;1.00;;;;;;5030220;28;20214;-66
2021/05/01 01:12:18;;;;;;;28.40;25.50;;;9.70;1.00;;;;;;5049792;28;20277;-66
2021/05/01 01:14:44;;;;;;;28.70;25.60;;;9.70;1.00;;;;;;5038481;28;20475;-66
2021/05/01 01:17:10;;;;;;;28.53;25.43;;;9.70;1.00;;;;;;5035012;28;20934;-66
2021/05/01 01:19:38;;;;;;;30.30;26.97;;;9.60;1.00;;;;;;5031614;28;20451;-74
2021/05/01 01:22:10;;;;;;;27.60;24.53;;;9.60;1.00;;;;;;5034636;28;20468;-66
2021/05/01 01:24:36;;;;;;;29.37;25.00;;;9.60;1.00;;;;;;5031068;28;20495;-66
2021/05/01 01:27:01;;;;;;;27.60;24.60;;;9.50;1.00;;;;;;5031422;28;20441;-66
2021/05/01 01:29:27;;;;;;;27.87;24.93;;;9.60;1.00;;;;;;5031315;28;20595;-66
2021/05/01 01:31:52;;;;;;;29.53;26.33;;;9.60;1.00;;;;;;5032620;28;20230;-66
2021/05/01 01:34:18;;;;;;;27.90;25.10;;;9.60;1.00;;;;;;5032115;28;20183;-66
2021/05/01 01:36:43;;;;;;;29.43;24.87;;;9.60;1.00;;;;;;5030572;28;20570;-67
2021/05/01 01:39:09;;;;;;;31.10;24.97;;;9.70;1.00;;;;;;5040490;28;20194;-75
2021/05/01 01:41:34;;;;;;;28.00;24.80;;;9.60;1.00;;;;;;5028593;28;20182;-66
2021/05/01 01:44:00;;;;;;;27.13;23.80;;;9.70;1.00;;;;;;5031364;28;20277;-65
2021/05/01 01:46:25;;;;;;;30.30;24.77;;;9.70;1.00;;;;;;5027058;28;20182;-66
2021/05/01 01:48:51;;;;;;;26.27;23.47;;;9.70;1.00;;;;;;5040801;28;20182;-66
2021/05/01 01:51:17;;;;;;;27.17;23.47;;;9.70;1.00;;;;;;5023170;28;20653;-65
2021/05/01 01:53:43;;;;;;;27.43;24.30;;;9.70;1.00;;;;;;5030721;28;20191;-66
2021/05/01 01:56:08;;;;;;;25.53;22.77;;;9.70;1.00;;;;;;5042596;28;20232;-65
2021/05/01 01:58:34;;;;;;;25.13;22.53;;;9.70;1.00;;;;;;5039849;28;20185;-67
2021/05/01 02:00:59;;;;;;;25.47;22.80;;;9.70;1.00;;;;;;5037413;28;20183;-65
2021/05/01 02:03:25;;;;;;;24.20;21.60;;;9.70;1.00;;;;;;5034140;28;20206;-66
2021/05/01 02:05:51;;;;;;;27.13;23.80;;;9.70;1.00;;;;;;5044405;28;20227;-66
2021/05/01 02:08:16;;;;;;;25.90;22.70;;;9.70;1.00;;;;;;5032624;28;20212;-65
2021/05/01 02:10:42;;;;;;;24.07;21.50;;;9.60;1.00;;;;;;5029682;28;20192;-65
2021/05/01 02:13:09;;;;;;;26.30;23.47;;;9.60;1.00;;;;;;5039096;28;20190;-65
2021/05/01 02:15:35;;;;;;;26.23;22.43;;;9.50;1.00;;;;;;5037749;28;20433;-65
2021/05/01 02:18:02;;;;;;;26.57;22.30;;;9.50;1.00;;;;;;5025567;28;20446;-66
2021/05/01 02:20:30;;;;;;;26.63;23.07;;;9.50;1.00;;;;;;5027557;28;20436;-65
2021/05/01 02:22:57;;;;;;;29.40;23.70;;;9.50;1.00;;;;;;5027863;28;20465;-65
2021/05/01 02:25:23;;;;;;;27.63;22.90;;;9.50;1.00;;;;;;5030344;28;20433;-72
2021/05/01 02:27:49;;;;;;;28.97;22.97;;;9.40;1.00;;;;;;5037126;28;20449;-65
2021/05/01 02:30:18;;;;;;;28.27;24.20;;;9.40;1.00;;;;;;5027143;28;20481;-65
2021/05/01 02:32:44;;;;;;;27.87;23.67;;;9.50;1.00;;;;;;5016926;28;20187;-65
2021/05/01 02:35:13;;;;;;;38.83;23.80;;;9.40;1.00;;;;;;5026295;28;20484;-66
2021/05/01 02:37:40;;;;;;;28.47;23.70;;;9.40;1.00;;;;;;5031214;28;20468;-66
2021/05/01 02:40:08;;;;;;;27.03;23.70;;;9.40;1.00;;;;;;5030265;28;20528;-65
2021/05/01 02:42:33;;;;;;;26.60;22.60;;;9.40;1.00;;;;;;5028768;28;20499;-65
2021/05/01 02:44:59;;;;;;;28.27;23.93;;;9.40;1.00;;;;;;5030736;28;20442;-65
2021/05/01 02:47:25;;;;;;;29.90;23.83;;;9.40;1.00;;;;;;5050825;28;20175;-64
2021/05/01 02:49:50;;;;;;;26.30;23.47;;;9.40;1.00;;;;;;5032349;28;20201;-68
2021/05/01 02:52:16;;;;;;;26.30;23.47;;;9.40;1.00;;;;;;5029964;28;20191;-66
2021/05/01 02:54:41;;;;;;;26.43;22.90;;;9.40;1.00;;;;;;5029514;28;20191;-66
2021/05/01 02:57:07;;;;;;;25.90;22.20;;;9.40;1.00;;;;;;5027914;28;20194;-66
2021/05/01 02:59:32;;;;;;;27.07;22.60;;;9.40;1.00;;;;;;5034883;28;20197;-66
2021/05/01 03:01:58;;;;;;;24.90;22.20;;;9.40;1.00;;;;;;5027395;28;20194;-66
2021/05/01 03:04:24;;;;;;;28.00;24.47;;;9.40;1.00;;;;;;5031795;28;20179;-66
2021/05/01 03:06:49;;;;;;;29.10;23.57;;;9.30;1.00;;;;;;5032741;28;20186;-65
2021/05/01 03:09:15;;;;;;;28.10;22.83;;;9.30;1.00;;;;;;5027914;28;20638;-64
2021/05/01 03:11:41;;;;;;;25.67;22.80;;;9.30;1.00;;;;;;5036954;28;20257;-65
2021/05/01 03:14:07;;;;;;;24.87;22.10;;;9.30;1.00;;;;;;5046881;28;20962;-65
2021/05/01 03:16:32;;;;;;;27.03;22.17;;;9.40;1.00;;;;;;5027065;28;20507;-65
2021/05/01 03:18:58;;;;;;;24.90;22.07;;;9.30;1.00;;;;;;5030172;28;20907;-64
2021/05/01 03:21:24;;;;;;;30.97;23.97;;;9.30;1.00;;;;;;5039609;28;20179;-65
2021/05/01 03:23:51;;;;;;;26.67;20.97;;;9.30;1.00;;;;;;5017353;28;20242;-66
2021/05/01 03:26:17;;;;;;;26.37;22.63;;;9.30;1.00;;;;;;5027006;28;20187;-65
2021/05/01 03:28:43;;;;;;;26.77;21.97;;;9.30;1.00;;;;;;5029232;28;20441;-67
2021/05/01 03:31:09;;;;;;;27.70;22.90;;;9.30;1.00;;;;;;5028562;28;20469;-67
2021/05/01 03:33:35;;;;;;;27.57;21.43;;;9.30;1.00;;;;;;5036651;28;20483;-67
2021/05/01 03:36:00;;;;;;;24.30;21.30;;;9.30;1.00;;;;;;5029659;28;20248;-66
2021/05/01 03:38:26;;;;;;;25.93;21.53;;;9.30;1.00;;;;;;5024723;28;20602;-67
2021/05/01 03:40:52;;;;;;;27.93;21.90;;;9.30;1.00;;;;;;5036375;28;20206;-66
2021/05/01 03:43:19;;;;;;;26.83;22.17;;;9.30;1.00;;;;;;5028617;28;20210;-66
2021/05/01 03:45:46;;;;;;;25.80;23.00;;;9.40;1.00;;;;;;5027280;28;20451;-69
2021/05/01 03:48:11;;;;;;;26.10;21.87;;;9.30;1.00;;;;;;5028446;28;20425;-65
2021/05/01 03:50:37;;;;;;;26.53;22.03;;;9.30;1.00;;;;;;5026660;28;20520;-65
2021/05/01 03:53:02;;;;;;;24.50;21.07;;;9.30;1.00;;;;;;5037930;28;20175;-65
2021/05/01 03:55:28;;;;;;;24.77;21.33;;;9.30;1.00;;;;;;5026855;28;20183;-68
2021/05/01 03:57:53;;;;;;;26.80;21.17;;;9.30;1.00;;;;;;5027075;28;20285;-68
2021/05/01 04:00:19;;;;;;;27.30;20.40;;;9.40;1.00;;;;;;5028151;28;20237;-67
2021/05/01 04:02:45;;;;;;;25.53;20.90;;;9.40;1.00;;;;;;5026323;28;20233;-67
2021/05/01 04:05:13;;;;;;;24.30;20.60;;;9.40;1.00;;;;;;5043126;28;20441;-67
2021/05/01 04:07:38;;;;;;;22.90;20.03;;;9.40;1.00;;;;;;5027645;28;20190;-67
2021/05/01 04:10:04;;;;;;;24.40;20.50;;;9.40;1.00;;;;;;5028712;28;20425;-66
2021/05/01 04:12:30;;;;;;;29.43;21.77;;;9.40;1.00;;;;;;5034516;28;20182;-66
2021/05/01 04:14:55;;;;;;;25.33;20.10;;;9.30;1.00;;;;;;5032894;28;20531;-66
2021/05/01 04:17:21;;;;;;;22.23;19.87;;;9.30;1.00;;;;;;5045722;28;20200;-65
2021/05/01 04:19:48;;;;;;;23.10;19.73;;;9.30;1.00;;;;;;5030716;28;20245;-65
2021/05/01 04:22:15;;;;;;;22.47;19.27;;;9.30;1.00;;;;;;5038095;28;20287;-67
2021/05/01 04:24:41;;;;;;;21.63;18.83;;;9.40;1.00;;;;;;5053122;28;20780;-66
2021/05/01 04:27:06;;;;;;;21.83;19.40;;;9.40;1.00;;;;;;5038409;28;20448;-69
2021/05/01 04:29:32;;;;;;;22.00;19.47;;;9.40;1.00;;;;;;5039625;28;20194;-65
2021/05/01 04:31:57;;;;;;;22.63;19.83;;;9.40;1.00;;;;;;5037252;28;20902;-65
2021/05/01 04:34:23;;;;;;;23.43;19.30;;;9.40;1.00;;;;;;5040402;28;20189;-65
2021/05/01 04:36:48;;;;;;;23.27;19.83;;;9.40;1.00;;;;;;5045951;28;20178;-65
2021/05/01 04:39:14;;;;;;;21.63;19.30;;;9.30;1.00;;;;;;5043541;28;20199;-65
2021/05/01 04:41:40;;;;;;;23.30;20.07;;;9.30;1.00;;;;;;5031923;28;20189;-66
2021/05/01 04:44:05;;;;;;;22.63;20.17;;;9.40;1.00;;;;;;5032628;28;20213;-65
2021/05/01 04:46:32;;;;;;;21.53;19.23;;;9.40;1.00;;;;;;5031473;28;20441;-66
2021/05/01 04:48:57;;;;;;;21.80;19.17;;;9.50;1.00;;;;;;5030486;28;20179;-65
2021/05/01 04:51:23;;;;;;;23.63;19.60;;;9.50;1.00;;;;;;5037033;28;20440;-65
2021/05/01 04:53:48;;;;;;;22.47;20.07;;;9.50;1.00;;;;;;5033773;28;20190;-66
2021/05/01 04:56:14;;;;;;;21.87;18.77;;;9.50;1.00;;;;;;5029994;28;20194;-66
2021/05/01 04:58:40;;;;;;;21.30;18.50;;;9.50;1.00;;;;;;5031191;28;20183;-73
2021/05/01 05:01:05;;;;;;;20.90;17.93;;;9.60;1.00;;;;;;5030001;28;20198;-66
2021/05/01 05:03:31;;;;;;;22.50;18.10;;;9.70;1.00;;;;;;5031904;28;20229;-66
2021/05/01 05:05:56;;;;;;;22.50;18.27;;;9.70;1.00;;;;;;5030847;28;20189;-66
2021/05/01 05:08:22;;;;;;;20.73;18.43;;;9.70;1.00;;;;;;5030297;28;20221;-65
2021/05/01 05:10:47;;;;;;;18.23;16.30;;;9.70;1.00;;;;;;5030953;28;20190;-65
2021/05/01 05:13:13;;;;;;;21.10;17.70;;;9.70;1.00;;;;;;5027310;28;20193;-65
2021/05/01 05:15:39;;;;;;;19.73;17.10;;;9.70;1.00;;;;;;5033888;28;20190;-65
2021/05/01 05:18:05;;;;;;;19.13;16.93;;;9.70;1.00;;;;;;5029474;28;20194;-65
2021/05/01 05:20:30;;;;;;;19.20;16.83;;;9.70;1.00;;;;;;5031839;28;20198;-65
2021/05/01 05:22:56;;;;;;;21.07;17.47;;;9.60;1.00;;;;;;5029269;28;20464;-65
2021/05/01 05:25:21;;;;;;;22.43;17.57;;;9.70;1.00;;;;;;5031215;28;20277;-65
2021/05/01 05:27:47;;;;;;;19.97;17.83;;;9.70;1.00;;;;;;5029568;28;20252;-66
2021/05/01 05:30:13;;;;;;;21.20;17.63;;;9.70;1.00;;;;;;5030658;28;20224;-66
2021/05/01 05:32:39;;;;;;;19.17;17.17;;;9.80;1.00;;;;;;5029123;28;20277;-65
2021/05/01 05:35:05;;;;;;;20.23;17.23;;;9.80;1.00;;;;;;5027356;28;20841;-65
2021/05/01 05:37:30;;;;;;;22.13;17.67;;;9.90;1.00;;;;;;5030460;28;20210;-66
2021/05/01 05:39:57;;;;;;;19.23;16.90;;;10.00;1.00;;;;;;5031200;28;20452;-66
2021/05/01 05:42:24;;;;;;;18.63;16.43;;;10.10;1.00;;;;;;5028845;28;20207;-67
2021/05/01 05:44:50;;;;;;;18.77;16.77;;;10.10;1.00;;;;;;5030999;28;20441;-67
2021/05/01 05:47:19;;;;;;;21.60;17.20;;;10.10;1.00;;;;;;5030270;28;20749;-67
2021/05/01 05:49:45;;;;;;;19.17;16.80;;;10.10;1.00;;;;;;5028253;28;20449;-66
2021/05/01 05:52:11;;;;;;;20.30;17.13;;;10.10;1.00;;;;;;5030411;28;20532;-66
2021/05/01 05:54:38;;;;;;;20.33;17.60;;;10.10;1.00;;;;;;5030870;28;20444;-66
2021/05/01 05:57:07;;;;;;;20.17;17.50;;;10.20;1.00;;;;;;5031491;28;20425;-65
2021/05/01 05:59:32;;;;;;;19.53;17.43;;;10.20;1.00;;;;;;5030509;28;20516;-71
2021/05/01 06:02:01;;;;;;;19.40;17.27;;;10.30;1.00;;;;;;5016709;28;20541;-66
2021/05/01 06:04:38;;;;;;;19.53;17.13;;;10.30;1.00;;;;;;5008087;28;20218;-66
2021/05/01 06:07:11;;;;;;;21.93;17.57;;;10.20;1.00;;;;;;5002618;28;20433;-66
2021/05/01 06:09:40;;;;;;;18.40;16.20;;;10.30;1.00;;;;;;4999437;28;20564;-64
2021/05/01 06:12:10;;;;;;;19.33;16.80;;;10.30;1.00;;;;;;5005964;28;21133;-67
2021/05/01 06:14:43;;;;;;;19.63;17.63;;;10.30;1.00;;;;;;5008420;28;20449;-66
2021/05/01 06:17:11;;;;;;;21.57;17.27;;;10.40;1.00;;;;;;5008053;28;20460;-66
2021/05/01 06:19:38;;;;;;;18.47;15.37;;;10.50;1.00;;;;;;5014305;28;20434;-67
2021/05/01 06:22:04;;;;;;;19.10;16.63;;;10.70;1.00;;;;;;5005062;28;20444;-66
2021/05/01 06:24:30;;;;;;;20.37;15.80;;;10.80;1.00;;;;;;5005826;28;20793;-66
2021/05/01 06:26:57;;;;;;;18.77;15.87;;;10.90;1.00;;;;;;5011492;28;20208;-67
2021/05/01 06:29:24;;;;;;;18.30;16.20;;;11.10;1.00;;;;;;5011606;28;20507;-67
2021/05/01 06:31:50;;;;;;;17.53;15.73;;;11.20;1.00;;;;;;5005158;28;20524;-67
2021/05/01 06:34:16;;;;;;;17.33;15.43;;;11.40;99.90;;;;;;5005507;28;20541;-67
2021/05/01 06:36:42;;;;;;;17.67;15.87;;;11.50;99.90;;;;;;5011323;28;20249;-67
2021/05/01 06:39:08;;;;;;;20.00;15.20;;;11.60;99.90;;;;;;5005189;28;20186;-66
2021/05/01 06:41:52;;;;;;;17.27;15.57;;;11.60;99.90;;;;;;5013774;28;21038;-69
2021/05/01 06:44:28;;;;;;;17.90;15.50;;;11.70;1.00;;;;;;5027153;28;20496;-67
2021/05/01 06:46:54;;;;;;;16.90;15.20;;;11.60;1.00;;;;;;5024458;28;21066;-68
2021/05/01 06:49:30;;;;;;;18.13;16.13;;;11.50;1.00;;;;;;5025089;28;20445;-66
2021/05/01 06:52:03;;;;;;;16.80;14.73;;;11.70;99.90;;;;;;5028970;28;20440;-68
2021/05/01 06:54:30;;;;;;;18.03;16.13;;;11.90;99.90;;;;;;5025934;28;20802;-64
2021/05/01 06:56:56;;;;;;;16.80;15.00;;;12.00;1.00;;;;;;5029105;28;20425;-63
2021/05/01 06:59:23;;;;;;;18.80;16.80;;;12.00;99.90;;;;;;5019364;28;20443;-63
2021/05/01 07:01:49;;;;;;;17.93;16.03;;;12.00;24.80;;;;;;5026256;28;20179;-62
2021/05/01 07:04:16;;;;;;;18.13;15.70;;;12.10;1.00;;;;;;5029124;28;21013;-67
2021/05/01 07:06:44;;;;;;;17.93;16.03;;;12.20;1.00;;;;;;5028141;28;20464;-67
2021/05/01 07:09:10;;;;;;;18.40;16.40;;;12.20;99.90;;;;;;5041179;28;20437;-69
2021/05/01 07:11:36;;;;;;;17.87;16.07;;;12.10;99.90;;;;;;5029079;28;20433;-69
2021/05/01 07:14:03;;;;;;;18.60;15.80;;;12.10;1.00;;;;;;5030396;28;20440;-70
2021/05/01 07:16:28;;;;;;;16.83;15.13;;;12.00;1.00;;;;;;5029410;28;20179;-67
2021/05/01 07:18:55;;;;;;;15.00;13.40;;;12.00;1.00;;;;;;5024470;28;20919;-66
2021/05/01 07:21:21;;;;;;;16.33;14.77;;;12.40;55.90;;;;;;5026711;28;20464;-67
2021/05/01 07:23:48;;;;;;;15.07;13.50;;;12.80;76.10;;;;;;5026027;28;20469;-64
2021/05/01 07:26:19;;;;;;;13.53;12.10;;;13.10;99.90;;;;;;5027994;28;20262;-62
2021/05/01 07:28:46;;;;;;;13.33;11.97;;;13.30;94.80;;;;;;5027791;28;20441;-64
2021/05/01 07:31:18;;;;;;;13.13;11.93;;;13.50;1.00;;;;;;5028376;28;20560;-65
2021/05/01 07:33:47;;;;;;;13.63;12.33;;;13.70;1.00;;;;;;5028006;28;20446;-64
2021/05/01 07:36:19;;;;;;;13.73;12.43;;;13.90;99.90;;;;;;5026358;28;20444;-62
2021/05/01 07:38:45;;;;;;;14.30;13.00;;;13.90;99.90;;;;;;5026886;28;20555;-62
2021/05/01 07:41:15;;;;;;;14.57;13.17;;;14.00;97.80;;;;;;5022061;28;20517;-63
2021/05/01 07:43:49;;;;;;;15.27;13.80;;;14.20;46.40;;;;;;5027127;28;20512;-63
2021/05/01 07:46:16;;;;;;;14.57;13.17;;;14.30;54.60;;;;;;5025107;28;20977;-63
2021/05/01 07:48:43;;;;;;;14.80;13.37;;;14.40;89.60;;;;;;5025725;28;20754;-62
2021/05/01 07:51:09;;;;;;;16.33;14.80;;;14.60;1.00;;;;;;5028021;28;20428;-64
2021/05/01 07:53:35;;;;;;;15.77;14.30;;;14.80;1.00;;;;;;5020904;28;20429;-65
2021/05/01 07:56:01;;;;;;;13.97;12.67;;;14.90;1.00;;;;;;5020105;28;20184;-62
2021/05/01 07:58:27;;;;;;;13.10;11.90;;;15.00;1.00;;;;;;5025682;28;20442;-62
2021/05/01 08:00:53;;;;;;;14.00;12.60;;;15.10;1.00;;;;;;5025156;28;20303;-64
2021/05/01 08:03:21;;;;;;;14.37;12.97;;;15.30;1.00;;;;;;5026501;28;20559;-63
2021/05/01 08:05:46;;;;;;;13.50;12.20;;;15.50;1.00;;;;;;5018991;28;20185;-62
2021/05/01 08:08:12;;;;;;;14.37;12.90;;;15.40;1.00;;;;;;5024081;28;20426;-63
2021/05/01 08:10:38;;;;;;;13.20;12.10;;;15.50;1.00;;;;;;5026152;28;20646;-62
2021/05/01 08:13:03;;;;;;;13.50;12.20;;;15.60;1.00;;;;;;5028569;28;20703;-63
2021/05/01 08:15:33;;;;;;;14.47;11.47;;;15.60;1.00;;;;;;5028778;28;20246;-62
2021/05/01 08:18:00;;;;;;;13.13;11.90;;;15.90;1.00;;;;;;5021253;28;20200;-63
2021/05/01 08:20:26;;;;;;;12.70;11.67;;;15.80;1.00;;;;;;5016122;28;21393;-63
2021/05/01 08:22:51;;;;;;;13.27;12.17;;;16.10;1.00;;;;;;5027187;28;20475;-64
2021/05/01 08:25:17;;;;;;;13.90;12.63;;;16.00;1.00;;;;;;5026365;28;20952;-63
2021/05/01 08:27:42;;;;;;;12.50;11.30;;;16.00;99.90;;;;;;5026046;28;20275;-63
2021/05/01 08:30:15;;;;;;;13.70;12.40;;;16.20;99.90;;;;;;5026089;28;20223;-63
2021/05/01 08:32:41;;;;;;;13.50;12.30;;;16.20;99.90;;;;;;5026939;28;20189;-62
2021/05/01 08:35:07;;;;;;;13.90;12.60;;;16.00;99.90;;;;;;5026869;28;20436;-63
2021/05/01 08:37:33;;;;;;;12.90;11.70;;;15.70;99.90;;;;;;5027275;28;20463;-62
2021/05/01 08:39:59;;;;;;;13.10;12.00;;;15.80;99.90;;;;;;5026821;28;20890;-62
2021/05/01 08:42:25;;;;;;;12.50;11.30;;;15.80;99.90;;;;;;5022905;28;20879;-62
2021/05/01 08:44:51;;;;;;;14.03;12.83;;;16.10;1.00;;;;;;5011809;28;20583;-62
2021/05/01 08:47:17;;;;;;;14.90;13.70;;;16.20;99.90;;;;;;5020743;28;20450;-62
2021/05/01 08:49:42;;;;;;;14.83;12.60;;;16.20;99.90;;;;;;5023417;28;20440;-65
2021/05/01 08:52:09;;;;;;;12.93;11.83;;;16.20;99.90;;;;;;5025905;28;20193;-63
2021/05/01 08:54:34;;;;;;;11.83;10.83;;;16.30;99.90;;;;;;5028642;28;20645;-63
2021/05/01 08:57:01;;;;;;;13.60;12.30;;;16.30;99.90;;;;;;5027802;28;20434;-64
2021/05/01 08:59:27;;;;;;;13.07;11.97;;;16.40;99.90;;;;;;5026963;28;20320;-64
2021/05/01 09:01:53;;;;;;;12.43;11.43;;;16.80;99.90;;;;;;5026401;28;20539;-64
2021/05/01 09:04:19;;;;;;;12.30;11.30;;;17.00;99.90;;;;;;5028719;28;20465;-64
2021/05/01 09:06:45;;;;;;;13.43;12.30;;;17.40;99.90;;;;;;5029867;28;20421;-65
2021/05/01 09:09:11;;;;;;;12.77;11.77;;;17.70;99.90;;;;;;5028443;28;20244;-64
2021/05/01 09:11:45;;;;;;;11.07;10.27;;;18.50;99.90;;;;;;5021932;28;20461;-63
2021/05/01 09:14:18;;;;;;;12.83;11.83;;;19.20;99.90;;;;;;5052510;28;20806;-62
2021/05/01 09:16:55;;;;;;;12.37;11.37;;;19.50;99.90;;;;;;5032646;28;20437;-62
2021/05/01 09:19:34;;;;;;;11.40;10.50;;;19.70;99.90;;;;;;5029783;28;21005;-62
2021/05/01 09:22:02;;;;;;;11.57;10.77;;;20.00;99.90;;;;;;5017645;28;20425;-62
2021/05/01 09:24:28;;;;;;;11.97;10.97;;;20.40;99.90;;;;;;5031404;28;20441;-62
2021/05/01 09:26:54;;;;;;;11.63;10.63;;;20.60;99.90;;;;;;5029188;28;20431;-63
2021/05/01 09:29:38;;;;;;;13.40;12.40;;;20.40;99.90;;;;;;5032480;28;20182;-63
2021/05/01 09:32:18;;;;;;;12.20;11.20;;;20.40;99.90;;;;;;5027414;28;20534;-63
2021/05/01 09:34:47;;;;;;;11.37;10.47;;;20.40;99.90;;;;;;5031903;28;20551;-63
2021/05/01 09:37:14;;;;;;;11.90;11.00;;;20.70;99.90;;;;;;5031453;28;20505;-63
2021/05/01 09:39:50;;;;;;;12.30;11.30;;;21.50;99.90;;;;;;5028818;28;20962;-63
2021/05/01 09:42:17;;;;;;;12.80;11.80;;;21.60;99.90;;;;;;5028300;28;20478;-63
2021/05/01 09:44:45;;;;;;;12.37;11.47;;;21.70;99.90;;;;;;5030130;28;20472;-63
2021/05/01 09:47:18;;;;;;;12.63;11.63;;;21.30;99.90;;;;;;5031935;28;20444;-63
2021/05/01 09:49:46;;;;;;;12.20;11.30;;;21.10;99.90;;;;;;5027097;28;20452;-63
2021/05/01 09:52:14;;;;;;;13.30;12.30;;;20.50;99.90;;;;;;5030879;28;20430;-63
2021/05/01 09:54:45;;;;;;;12.73;11.70;;;20.10;99.90;;;;;;5026989;28;20437;-64
2021/05/01 09:57:19;;;;;;;11.87;10.97;;;19.90;99.90;;;;;;5019089;28;20436;-64
2021/05/01 09:59:47;;;;;;;12.30;11.40;;;19.50;99.90;;;;;;5027031;28;20942;-63
2021/05/01 10:02:14;;;;;;;11.23;10.43;;;19.50;99.90;;;;;;5027063;28;20435;-64
2021/05/01 10:04:41;;;;;;;12.03;11.13;;;19.60;99.90;;;;;;5027912;28;20472;-64
2021/05/01 10:07:09;;;;;;;12.73;11.73;;;19.60;99.90;;;;;;5017961;28;20522;-64
2021/05/01 10:09:37;;;;;;;13.37;12.37;;;19.40;99.90;;;;;;5028093;28;20440;-64
2021/05/01 10:12:08;;;;;;;12.30;11.40;;;18.80;99.90;;;;;;5026164;28;20471;-64
2021/05/01 10:14:50;;;;;;;12.30;11.30;;;18.40;99.90;;;;;;5029184;28;21333;-64
2021/05/01 10:17:37;;;;;;;15.73;11.40;;;18.20;99.90;;;;;;5026152;28;20432;-64
2021/05/01 10:20:07;;;;;;;13.07;11.97;;;18.20;99.90;;;;;;5039900;28;20490;-64
2021/05/01 10:22:40;;;;;;;12.00;10.90;;;18.20;99.90;;;;;;5027948;28;20465;-64
2021/05/01 10:25:09;;;;;;;12.73;11.67;;;18.30;99.90;;;;;;5025536;28;20440;-65
2021/05/01 10:28:07;;;;;;;12.60;11.60;;;18.40;99.90;;;;;;5030351;28;20436;-64
2021/05/01 10:33:19;;;;;;;12.47;11.57;;;18.20;99.90;;;;;;5028595;28;20460;-64
2021/05/01 10:36:05;;;;;;;11.87;10.97;;;18.10;99.90;;;;;;5029356;28;20882;-64
2021/05/01 10:38:33;;;;;;;12.73;11.60;;;18.20;99.90;;;;;;5026631;28;20514;-64
2021/05/01 10:41:00;;;;;;;12.13;11.13;;;18.30;99.90;;;;;;5028450;28;20480;-64
2021/05/01 10:43:35;;;;;;;13.10;12.00;;;18.50;99.90;;;;;;5025454;28;20472;-65
2021/05/01 10:46:06;;;;;;;13.00;12.00;;;18.70;99.90;;;;;;5029718;28;20425;-64
2021/05/01 10:48:46;;;;;;;12.80;11.80;;;18.70;99.90;;;;;;5001816;28;20626;-63
2021/05/01 10:51:12;;;;;;;13.27;12.20;;;18.60;99.90;;;;;;5005925;28;20435;-63
2021/05/01 10:53:38;;;;;;;13.50;12.40;;;18.60;99.90;;;;;;5005840;28;20452;-64
2021/05/01 10:56:09;;;;;;;14.23;13.13;;;18.40;99.90;;;;;;5005481;28;20440;-64
2021/05/01 10:58:43;;;;;;;14.17;13.07;;;18.10;99.90;;;;;;5043133;28;20422;-65
2021/05/01 11:01:35;;;;;;;14.47;13.27;;;18.20;99.90;;;;;;5028891;28;20424;-64
2021/05/01 11:04:06;;;;;;;13.17;12.07;;;18.00;99.90;;;;;;5027020;28;20472;-64
2021/05/01 11:06:58;;;;;;;13.30;12.30;;;17.90;99.90;;;;;;5027927;28;21244;-66
2021/05/01 11:09:43;;;;;;;14.20;13.00;;;17.80;99.90;;;;;;5025378;28;20487;-65
2021/05/01 11:12:11;;;;;;;14.17;12.97;;;17.70;99.90;;;;;;5026519;28;20439;-65
2021/05/01 11:14:46;;;;;;;15.33;14.03;;;17.70;99.90;;;;;;5030645;28;20455;-65
2021/05/01 11:17:23;;;;;;;15.60;14.37;;;17.70;99.90;;;;;;5023857;28;20413;-65
2021/05/01 11:19:57;;;;;;;14.90;13.70;;;17.60;99.90;;;;;;5023137;28;20470;-65
2021/05/01 11:22:25;;;;;;;15.73;14.40;;;17.50;99.90;;;;;;5028706;28;20447;-65
2021/05/01 11:24:52;;;;;;;15.40;14.10;;;17.60;99.90;;;;;;5029590;28;20816;-66
2021/05/01 11:27:18;;;;;;;14.60;13.43;;;17.40;99.90;;;;;;5029766;28;21196;-67
2021/05/01 11:29:45;;;;;;;15.30;14.10;;;17.40;99.90;;;;;;5021244;28;20442;-66
2021/05/01 11:32:12;;;;;;;15.73;14.37;;;17.30;99.90;;;;;;5008800;28;20426;-67
2021/05/01 11:34:38;;;;;;;14.70;13.50;;;17.20;99.90;;;;;;5011966;28;20410;-67
2021/05/01 11:37:06;;;;;;;16.53;15.13;;;17.20;99.90;;;;;;5010702;28;21280;-71
2021/05/01 11:39:37;;;;;;;16.10;14.80;;;17.40;99.90;;;;;;5011740;28;20882;-67
2021/05/01 11:42:03;;;;;;;16.00;14.70;;;17.50;99.90;;;;;;5010519;28;20422;-67
2021/05/01 11:44:29;;;;;;;15.60;14.40;;;17.50;99.90;;;;;;5011341;28;20468;-68
2021/05/01 11:47:17;;;;;;;16.23;14.93;;;17.60;99.90;;;;;;5010858;28;20525;-67
2021/05/01 11:49:42;;;;;;;14.70;13.53;;;17.60;99.90;;;;;;5013692;28;20187;-67
2021/05/01 11:52:18;;;;;;;16.70;15.30;;;17.60;99.90;;;;;;5014891;28;20929;-68
2021/05/01 11:55:02;;;;;;;17.30;15.80;;;17.60;99.90;;;;;;5028479;28;20170;-70
2021/05/01 11:57:55;;;;;;;16.07;14.77;;;17.50;99.90;;;;;;5028968;28;20405;-68
2021/05/01 12:00:29;;;;;;;15.10;13.80;;;17.40;99.90;;;;;;5027768;28;21150;-67
2021/05/01 12:02:55;;;;;;;15.60;14.40;;;17.50;99.90;;;;;;5026793;28;20572;-68
2021/05/01 12:05:29;;;;;;;16.53;15.10;;;17.50;99.90;;;;;;5028479;28;20420;-68
2021/05/01 12:07:57;;;;;;;15.40;14.20;;;17.50;99.90;;;;;;5028531;28;20444;-70
2021/05/01 12:10:24;;;;;;;16.43;15.13;;;17.50;99.90;;;;;;5028189;28;20436;-68
2021/05/01 12:13:14;;;;;;;16.03;14.73;;;17.30;99.90;;;;;;5028165;28;20707;-66
2021/05/01 12:15:46;;;;;;;17.17;15.77;;;17.40;99.90;;;;;;5043343;28;20412;-68
2021/05/01 12:18:12;;;;;;;16.50;15.10;;;17.40;99.90;;;;;;5026113;28;21895;-68
2021/05/01 12:20:39;;;;;;;16.07;14.80;;;17.40;99.90;;;;;;5025533;28;20435;-68
2021/05/01 12:23:34;;;;;;;16.93;15.53;;;17.30;99.90;;;;;;5028171;28;20199;-68
2021/05/01 12:26:01;;;;;;;16.60;15.10;;;17.30;99.90;;;;;;5017905;28;20425;-67
2021/05/01 12:28:38;;;;;;;16.33;14.83;;;17.40;99.90;;;;;;5027877;28;20469;-65
2021/05/01 12:31:05;;;;;;;15.57;14.20;;;17.30;99.90;;;;;;5029008;28;20491;-68
2021/05/01 12:33:31;;;;;;;15.20;14.00;;;17.30;99.90;;;;;;5028436;28;20447;-65
2021/05/01 12:36:03;;;;;;;14.43;13.20;;;17.20;99.90;;;;;;5028823;28;20421;-65
2021/05/01 12:38:35;;;;;;;15.00;13.80;;;17.30;99.90;;;;;;5023970;28;20201;-68
2021/05/01 12:41:06;;;;;;;15.27;13.97;;;17.20;99.90;;;;;;5025256;28;20465;-69
2021/05/01 12:43:32;;;;;;;15.40;14.10;;;17.10;99.90;;;;;;5024167;28;20463;-67